Time;durP1;ratioP1;P1;durP2;ratioP2;P2;SDS_P1;SDS_P2;PMS_P1;PMS_P2;Temp;Humidity;BMP_temperature;BMP_pressure;BME280_temperature;BME280_humidity;BME280_pressure;Samples;Min_cycle;Max_cycle;Signal;HPM_P1;HPM_P2
2023/08/07 00:01:01;;;;;;;5.68;1.77;;;;;;;15.96;100.00;99736.16;5108056;28;20027;-76
2023/08/07 00:03:26;;;;;;;3.92;1.75;;;;;;;16.03;100.00;99754.13;5091251;28;20071;-76
2023/08/07 00:05:53;;;;;;;4.63;2.10;;;;;;;16.03;100.00;99699.84;5091081;28;20394;-76
2023/08/07 00:08:18;;;;;;;2.38;1.60;;;;;;;16.10;100.00;99703.94;5074354;28;20028;-76
2023/08/07 00:10:43;;;;;;;2.50;1.42;;;;;;;16.01;100.00;99689.25;5090943;28;20102;-76
2023/08/07 00:13:09;;;;;;;3.03;1.60;;;;;;;15.96;100.00;99675.66;5090672;28;20074;-76
2023/08/07 00:15:37;;;;;;;1.90;1.40;;;;;;;15.89;100.00;99664.19;5107756;28;20058;-76
2023/08/07 00:18:03;;;;;;;2.30;1.38;;;;;;;15.91;100.00;99635.72;5091928;28;20028;-76
2023/08/07 00:20:28;;;;;;;2.90;1.60;;;;;;;15.81;100.00;99676.38;5073544;28;20028;-76
2023/08/07 00:22:54;;;;;;;1.95;1.60;;;;;;;15.81;100.00;99689.94;5090625;28;20060;-77
2023/08/07 00:25:19;;;;;;;3.00;1.35;;;;;;;15.99;100.00;99669.69;5107562;28;20040;-76
2023/08/07 00:27:45;;;;;;;4.20;1.80;;;;;;;16.00;100.00;99643.38;5090276;28;20137;-76
2023/08/07 00:30:11;;;;;;;4.60;1.30;;;;;;;15.87;100.00;99661.75;5107638;28;20487;-76
2023/08/07 00:32:36;;;;;;;3.47;1.40;;;;;;;15.87;100.00;99677.22;5073476;28;20092;-76
2023/08/07 00:35:02;;;;;;;2.85;1.52;;;;;;;15.83;100.00;99644.38;5090397;28;20396;-77
2023/08/07 00:37:27;;;;;;;2.42;1.48;;;;;;;15.95;100.00;99644.97;5107456;28;20055;-77
2023/08/07 00:39:52;;;;;;;2.92;1.38;;;;;;;15.91;100.00;99651.19;5091405;28;20468;-77
2023/08/07 00:42:18;;;;;;;2.83;1.50;;;;;;;15.97;100.00;99634.69;5111635;28;20028;-76
2023/08/07 00:44:43;;;;;;;2.20;1.50;;;;;;;16.09;100.00;99625.50;5094500;28;20028;-76
2023/08/07 00:47:09;;;;;;;1.67;1.25;;;;;;;15.97;100.00;99631.97;5095350;28;20032;-77
2023/08/07 00:49:35;;;;;;;3.35;1.05;;;;;;;15.84;100.00;99610.75;5093805;28;20032;-76
2023/08/07 00:52:01;;;;;;;1.60;1.10;;;;;;;16.04;100.00;99629.03;5093841;28;20048;-77
2023/08/07 00:54:26;;;;;;;1.52;1.10;;;;;;;16.38;100.00;99650.34;5093872;28;20525;-77
2023/08/07 00:56:52;;;;;;;3.55;1.00;;;;;;;16.26;100.00;99680.44;5094274;28;20084;-76
2023/08/07 00:59:18;;;;;;;1.95;1.33;;;;;;;16.22;100.00;99635.88;5093840;28;20028;-76
2023/08/07 01:01:44;;;;;;;1.83;1.13;;;;;;;16.31;100.00;99604.44;5095102;28;20028;-76
2023/08/07 01:04:10;;;;;;;4.60;1.40;;;;;;;16.53;100.00;99598.00;5113563;28;20028;-77
2023/08/07 01:06:35;;;;;;;4.80;1.40;;;;;;;16.36;100.00;99585.47;5094365;28;20498;-76
2023/08/07 01:09:00;;;;;;;8.60;1.55;;;;;;;16.28;100.00;99621.25;5094238;28;20331;-76
2023/08/07 01:11:48;;;;;;;9.13;1.63;;;;;;;16.19;100.00;99603.84;5095176;28;20062;-76
2023/08/07 01:14:33;;;;;;;20.05;2.33;;;;;;;16.33;100.00;99605.00;5094906;28;20020;-76
2023/08/07 01:17:11;;;;;;;23.42;2.80;;;;;;;16.17;100.00;99568.03;5093908;28;20035;-76
2023/08/07 01:19:38;;;;;;;18.05;2.67;;;;;;;15.90;100.00;99562.75;5094185;28;20110;-76
2023/08/07 01:22:07;;;;;;;7.40;1.83;;;;;;;15.98;100.00;99551.38;5093949;28;20509;-76
2023/08/07 01:24:33;;;;;;;7.68;1.75;;;;;;;15.92;100.00;99542.41;5110808;28;20032;-75
2023/08/07 01:27:10;;;;;;;4.97;1.25;;;;;;;15.93;100.00;99546.78;5111489;28;20028;-75
2023/08/07 01:30:03;;;;;;;5.55;1.52;;;;;;;15.90;100.00;99533.75;5095186;28;20544;-76
2023/08/07 01:32:53;;;;;;;3.15;1.02;;;;;;;16.01;100.00;99531.88;5093829;28;20028;-76
2023/08/07 01:35:25;;;;;;;2.17;1.10;;;;;;;16.06;100.00;99517.50;5094219;28;20024;-77
2023/08/07 01:37:53;;;;;;;2.13;1.05;;;;;;;15.97;100.00;99530.78;5095754;28;20031;-77
2023/08/07 01:40:20;;;;;;;4.78;0.90;;;;;;;16.12;100.00;99506.38;5095238;28;20054;-77
2023/08/07 01:42:47;;;;;;;2.28;0.90;;;;;;;15.77;100.00;99479.16;5093980;28;20034;-77
2023/08/07 01:45:12;;;;;;;3.58;1.33;;;;;;;16.29;100.00;99503.47;5094173;28;20487;-77
2023/08/07 01:47:38;;;;;;;3.00;0.77;;;;;;;16.22;100.00;99508.31;5093718;28;20030;-77
2023/08/07 01:50:04;;;;;;;2.35;0.80;;;;;;;16.40;100.00;99501.56;5094442;28;20055;-77
2023/08/07 01:52:29;;;;;;;1.35;1.10;;;;;;;16.37;100.00;99459.50;5093029;28;20030;-77
2023/08/07 01:54:55;;;;;;;2.63;1.10;;;;;;;16.61;100.00;99450.81;5094338;28;20039;-77
2023/08/07 01:57:20;;;;;;;4.50;1.10;;;;;;;16.39;100.00;99415.75;5094554;28;20028;-77
2023/08/07 01:59:46;;;;;;;2.33;1.20;;;;;;;16.13;100.00;99388.63;5094765;28;20031;-76
2023/08/07 02:02:11;;;;;;;5.82;1.20;;;;;;;16.59;100.00;99432.09;5111144;28;20027;-77
2023/08/07 02:04:36;;;;;;;4.20;1.20;;;;;;;16.59;100.00;99436.69;5094204;28;20113;-77
2023/08/07 02:07:02;;;;;;;2.50;0.85;;;;;;;16.65;100.00;99430.16;5094840;28;20046;-77
2023/08/07 02:09:27;;;;;;;2.30;1.00;;;;;;;16.63;100.00;99407.91;5077920;28;20406;-77
2023/08/07 02:11:52;;;;;;;5.13;1.48;;;;;;;16.69;100.00;99401.38;5077703;28;20055;-77
2023/08/07 02:14:18;;;;;;;1.85;0.85;;;;;;;16.61;100.00;99418.22;5095239;28;20099;-77
2023/08/07 02:16:43;;;;;;;1.40;0.90;;;;;;;16.31;100.00;99419.84;5110110;28;20463;-77
2023/08/07 02:19:09;;;;;;;1.55;0.80;;;;;;;16.55;100.00;99413.88;5093739;28;20032;-77
2023/08/07 02:21:34;;;;;;;1.92;1.00;;;;;;;16.31;100.00;99376.41;5095195;28;20020;-77
2023/08/07 02:23:59;;;;;;;1.85;0.80;;;;;;;16.28;100.00;99412.25;5076230;28;20038;-77
2023/08/07 02:26:25;;;;;;;2.50;0.90;;;;;;;16.57;100.00;99387.28;5093027;28;20032;-77
2023/08/07 02:28:50;;;;;;;2.20;1.00;;;;;;;16.51;100.00;99391.88;5093105;28;20028;-77
2023/08/07 02:31:15;;;;;;;4.45;1.00;;;;;;;16.48;100.00;99392.41;5092659;28;20069;-77
2023/08/07 02:33:41;;;;;;;1.88;0.80;;;;;;;16.36;100.00;99372.91;5093279;28;20081;-75
2023/08/07 02:36:07;;;;;;;3.00;0.82;;;;;;;16.20;100.00;99326.75;5111413;28;20119;-77
2023/08/07 02:38:32;;;;;;;8.85;1.10;;;;;;;16.51;100.00;99340.28;5096900;28;20506;-76
2023/08/07 02:40:57;;;;;;;2.65;0.80;;;;;;;16.11;100.00;99331.09;5098850;28;20035;-77
2023/08/07 02:43:23;;;;;;;3.13;0.88;;;;;;;16.42;100.00;99337.34;5093848;28;20538;-77
2023/08/07 02:45:48;;;;;;;1.63;1.00;;;;;;;16.33;100.00;99328.09;5091990;28;20032;-77
2023/08/07 02:48:14;;;;;;;4.07;1.30;;;;;;;16.26;100.00;99316.72;5091784;28;20032;-77
2023/08/07 02:50:39;;;;;;;1.77;0.80;;;;;;;16.41;100.00;99324.81;5074825;28;20056;-77
2023/08/07 02:53:05;;;;;;;3.80;1.10;;;;;;;16.49;100.00;99314.50;5093334;28;20039;-76
2023/08/07 02:55:31;;;;;;;2.67;0.98;;;;;;;16.32;100.00;99303.94;5108975;28;20110;-77
2023/08/07 02:57:56;;;;;;;2.80;0.98;;;;;;;16.55;100.00;99318.84;5093405;28;20123;-77
2023/08/07 03:00:21;;;;;;;1.48;0.63;;;;;;;16.34;100.00;99309.91;5109460;28;20024;-76
2023/08/07 03:02:47;;;;;;;2.08;0.90;;;;;;;16.51;100.00;99294.13;5109254;28;20077;-76
2023/08/07 03:05:12;;;;;;;1.92;0.70;;;;;;;16.32;100.00;99269.47;5092771;28;20498;-76
2023/08/07 03:07:38;;;;;;;1.15;0.80;;;;;;;16.61;100.00;99274.28;5092500;28;20028;-76
2023/08/07 03:10:04;;;;;;;2.30;0.90;;;;;;;16.39;100.00;99285.47;5091957;28;20055;-76
2023/08/07 03:12:29;;;;;;;3.35;0.75;;;;;;;16.41;100.00;99277.88;5091989;28;20020;-76
2023/08/07 03:14:55;;;;;;;1.90;1.00;;;;;;;16.61;100.00;99282.44;5091741;28;20371;-76
2023/08/07 03:17:20;;;;;;;2.83;0.90;;;;;;;16.58;100.00;99277.56;5092345;28;20084;-76
2023/08/07 03:19:46;;;;;;;2.53;0.90;;;;;;;16.51;100.00;99263.47;5108737;28;20028;-76
2023/08/07 03:22:12;;;;;;;7.10;0.88;;;;;;;16.49;100.00;99260.19;5093043;28;20028;-76
2023/08/07 03:24:37;;;;;;;1.35;0.80;;;;;;;16.48;100.00;99277.56;5091533;28;20406;-76
2023/08/07 03:27:03;;;;;;;2.17;0.80;;;;;;;16.28;100.00;99268.38;5091283;28;20033;-75
2023/08/07 03:29:28;;;;;;;2.63;0.70;;;;;;;16.30;100.00;99246.41;5091077;28;20040;-76
2023/08/07 03:31:54;;;;;;;2.00;0.80;;;;;;;16.47;100.00;99259.66;5090971;28;20028;-76
2023/08/07 03:34:19;;;;;;;1.58;0.70;;;;;;;16.29;100.00;99251.03;5074319;28;20043;-76
2023/08/07 03:36:45;;;;;;;1.85;0.70;;;;;;;16.27;100.00;99223.34;5091178;28;20032;-76
2023/08/07 03:39:12;;;;;;;1.67;0.88;;;;;;;16.53;100.00;99240.38;5090930;28;20081;-76
2023/08/07 03:41:37;;;;;;;2.60;0.90;;;;;;;16.20;100.00;99230.97;5090771;28;20031;-76
2023/08/07 03:44:03;;;;;;;2.13;0.77;;;;;;;16.28;100.00;99222.25;5090607;28;20035;-76
2023/08/07 03:46:28;;;;;;;0.80;0.52;;;;;;;16.39;100.00;99228.44;5107712;28;20039;-76
2023/08/07 03:48:53;;;;;;;0.90;0.47;;;;;;;16.17;100.00;99226.88;5091819;28;20028;-76
2023/08/07 03:51:19;;;;;;;2.63;0.90;;;;;;;16.05;100.00;99217.41;5090453;28;20187;-76
2023/08/07 03:53:44;;;;;;;3.45;0.80;;;;;;;16.23;100.00;99225.00;5090669;28;20062;-75
2023/08/07 03:56:10;;;;;;;2.55;0.80;;;;;;;16.27;100.00;99234.19;5091949;28;20028;-75
2023/08/07 03:58:37;;;;;;;1.63;0.70;;;;;;;16.30;100.00;99241.78;5091828;28;20515;-75
2023/08/07 04:01:02;;;;;;;2.90;0.80;;;;;;;16.24;100.00;99215.75;5091157;28;20131;-75
2023/08/07 04:03:28;;;;;;;1.75;0.70;;;;;;;16.35;100.00;99216.53;5074028;28;20097;-76
2023/08/07 04:05:54;;;;;;;2.42;0.80;;;;;;;16.37;100.00;99236.88;5091981;28;20063;-75
2023/08/07 04:08:21;;;;;;;1.58;0.63;;;;;;;16.11;100.00;99173.72;5091825;28;20030;-76
2023/08/07 04:11:04;;;;;;;3.20;0.90;;;;;;;16.44;100.00;99210.25;5107583;28;20114;-76
2023/08/07 04:13:31;;;;;;;1.08;0.70;;;;;;;16.40;100.00;99220.03;5090472;28;20462;-76
2023/08/07 04:15:57;;;;;;;1.55;0.70;;;;;;;16.28;100.00;99216.81;5089318;28;20166;-76
2023/08/07 04:18:23;;;;;;;1.77;0.70;;;;;;;16.24;100.00;99210.31;5090394;28;20031;-75
2023/08/07 04:20:55;;;;;;;1.75;0.75;;;;;;;16.19;100.00;99218.47;5091552;28;20027;-75
2023/08/07 04:23:22;;;;;;;1.75;0.70;;;;;;;16.53;100.00;99217.84;5106543;28;20039;-76
2023/08/07 04:25:48;;;;;;;2.50;0.77;;;;;;;16.33;100.00;99197.00;5090399;28;20057;-76
2023/08/07 04:28:14;;;;;;;1.90;0.70;;;;;;;16.57;100.00;99181.69;5090313;28;20024;-76
2023/08/07 04:30:40;;;;;;;2.78;0.68;;;;;;;16.56;100.00;99157.56;5090328;28;20024;-75
2023/08/07 04:33:05;;;;;;;2.95;0.80;;;;;;;16.62;100.00;99176.25;5091526;28;20020;-75
2023/08/07 04:35:31;;;;;;;3.65;0.80;;;;;;;16.61;100.00;99166.47;5090476;28;20399;-75
2023/08/07 04:37:56;;;;;;;9.48;0.95;;;;;;;16.72;100.00;99172.69;5090098;28;20055;-75
2023/08/07 04:40:22;;;;;;;7.60;1.20;;;;;;;16.71;100.00;99168.31;5091284;28;20032;-75
2023/08/07 04:42:49;;;;;;;2.83;0.80;;;;;;;16.65;100.00;99161.28;5090173;28;20043;-75
2023/08/07 04:45:15;;;;;;;4.22;1.00;;;;;;;16.63;100.00;99166.22;5090202;28;20032;-76
2023/08/07 04:47:41;;;;;;;1.48;0.70;;;;;;;16.70;100.00;99165.91;5090121;28;20031;-76
2023/08/07 04:50:07;;;;;;;3.75;0.70;;;;;;;16.66;100.00;99162.94;5090002;28;20491;-76
2023/08/07 04:52:32;;;;;;;3.25;0.70;;;;;;;16.64;100.00;99151.53;5090686;28;20499;-76
2023/08/07 04:54:58;;;;;;;1.83;1.10;;;;;;;16.70;100.00;99166.72;5093531;28;20053;-76
2023/08/07 04:57:23;;;;;;;1.15;0.60;;;;;;;16.67;100.00;99153.69;5113806;28;20040;-76
2023/08/07 04:59:48;;;;;;;1.90;0.50;;;;;;;16.70;100.00;99138.75;5090718;28;20545;-75
2023/08/07 05:02:14;;;;;;;1.85;0.47;;;;;;;16.98;100.00;99159.78;5090172;28;20390;-76
2023/08/07 05:04:39;;;;;;;4.43;0.88;;;;;;;16.95;100.00;99159.53;5089742;28;20064;-76
2023/08/07 05:07:05;;;;;;;2.05;0.55;;;;;;;16.96;100.00;99163.88;5091373;28;20115;-76
2023/08/07 05:09:30;;;;;;;1.88;0.70;;;;;;;17.01;100.00;99161.13;5089934;28;20030;-76
2023/08/07 05:11:56;;;;;;;3.55;0.50;;;;;;;16.90;100.00;99172.06;5090021;28;20458;-76
2023/08/07 05:14:21;;;;;;;1.15;0.40;;;;;;;16.94;100.00;99160.63;5089696;28;20028;-76
2023/08/07 05:16:48;;;;;;;4.22;0.60;;;;;;;16.89;100.00;99156.06;5089862;28;20024;-76
2023/08/07 05:19:13;;;;;;;0.68;0.50;;;;;;;17.03;100.00;99158.94;5091200;28;20043;-76
2023/08/07 05:21:38;;;;;;;2.10;0.60;;;;;;;16.97;100.00;99152.72;5089641;28;20024;-76
2023/08/07 05:24:04;;;;;;;0.85;0.40;;;;;;;16.76;100.00;99119.44;5089273;28;20036;-77
2023/08/07 05:26:30;;;;;;;1.63;0.43;;;;;;;16.85;100.00;99141.38;5091284;28;20032;-76
2023/08/07 05:28:57;;;;;;;1.50;0.50;;;;;;;16.84;100.00;99113.41;5093586;28;20077;-77
2023/08/07 05:31:23;;;;;;;1.67;0.40;;;;;;;16.90;100.00;99134.03;5109922;28;20028;-77
2023/08/07 05:33:49;;;;;;;1.20;0.43;;;;;;;16.81;100.00;99127.56;5093168;28;20032;-78
2023/08/07 05:36:14;;;;;;;1.48;0.30;;;;;;;16.95;100.00;99130.44;5077796;28;20024;-77
2023/08/07 05:38:40;;;;;;;3.50;0.50;;;;;;;17.05;100.00;99126.84;5094060;28;20371;-77
2023/08/07 05:41:05;;;;;;;1.35;0.43;;;;;;;17.12;100.00;99133.63;5110162;28;20052;-77
2023/08/07 05:43:30;;;;;;;2.45;0.50;;;;;;;16.93;100.00;99083.75;5093023;28;20032;-77
2023/08/07 05:45:56;;;;;;;2.20;0.47;;;;;;;17.19;100.00;99133.28;5094141;28;20064;-76
2023/08/07 05:48:21;;;;;;;2.05;0.40;;;;;;;17.00;100.00;99127.72;5094347;28;20024;-76
2023/08/07 05:50:46;;;;;;;3.60;0.55;;;;;;;17.10;100.00;99127.63;5093902;28;20052;-76
2023/08/07 05:53:12;;;;;;;1.80;0.40;;;;;;;16.99;100.00;99109.00;5093749;28;20066;-76
2023/08/07 05:55:41;;;;;;;1.25;0.50;;;;;;;17.08;100.00;99115.41;5092744;28;20464;-76
2023/08/07 05:58:06;;;;;;;1.20;0.50;;;;;;;17.02;100.00;99111.94;5092669;28;20028;-77
2023/08/07 06:00:32;;;;;;;0.73;0.30;;;;;;;17.04;100.00;99115.19;5109923;28;20077;-77
2023/08/07 06:02:57;;;;;;;0.30;0.30;;;;;;;17.19;100.00;99122.41;5092920;28;20081;-77
2023/08/07 06:05:23;;;;;;;0.40;0.38;;;;;;;17.01;100.00;99114.94;5092785;28;20490;-77
2023/08/07 06:07:48;;;;;;;1.02;0.30;;;;;;;17.06;100.00;99106.75;5092864;28;20486;-76
2023/08/07 06:10:13;;;;;;;0.70;0.30;;;;;;;17.10;100.00;99097.75;5092479;28;20120;-77
2023/08/07 06:12:39;;;;;;;1.85;0.40;;;;;;;16.97;100.00;99078.56;5092449;28;20500;-77
2023/08/07 06:15:05;;;;;;;0.85;0.40;;;;;;;17.21;100.00;99098.47;5075504;28;20544;-77
2023/08/07 06:17:30;;;;;;;1.30;0.30;;;;;;;17.29;100.00;99099.78;5093000;28;20515;-77
2023/08/07 06:19:55;;;;;;;1.15;0.35;;;;;;;17.24;100.00;99092.47;5095771;28;20513;-76
2023/08/07 06:22:21;;;;;;;0.57;0.38;;;;;;;17.18;100.00;99082.72;5109564;28;20059;-76
2023/08/07 06:24:46;;;;;;;0.93;0.30;;;;;;;17.32;100.00;99078.28;5093426;28;20024;-76
2023/08/07 06:27:12;;;;;;;0.85;0.38;;;;;;;17.42;100.00;99076.53;5076719;28;20039;-77
2023/08/07 06:29:37;;;;;;;0.82;0.40;;;;;;;17.37;100.00;99078.22;5094339;28;20196;-77
2023/08/07 06:32:03;;;;;;;2.80;0.40;;;;;;;17.38;100.00;99065.41;5092318;28;20028;-77
2023/08/07 06:34:28;;;;;;;0.80;0.30;;;;;;;17.35;100.00;99061.38;5092117;28;20039;-76
2023/08/07 06:36:54;;;;;;;0.57;0.35;;;;;;;17.36;100.00;99054.03;5093294;28;20042;-76
2023/08/07 06:39:19;;;;;;;0.50;0.40;;;;;;;17.44;100.00;99064.28;5092719;28;20047;-76
2023/08/07 06:41:44;;;;;;;1.20;0.30;;;;;;;17.56;100.00;99066.63;5091976;28;20028;-77
2023/08/07 06:44:10;;;;;;;3.25;0.40;;;;;;;17.62;100.00;99065.47;5091900;28;20059;-76
2023/08/07 06:46:35;;;;;;;1.00;0.43;;;;;;;17.61;100.00;99067.38;5091785;28;20486;-77
2023/08/07 06:49:00;;;;;;;3.33;0.38;;;;;;;17.55;100.00;99056.84;5093108;28;20597;-76
2023/08/07 06:51:26;;;;;;;1.20;0.50;;;;;;;17.58;100.00;99062.53;5091705;28;20062;-76
2023/08/07 06:53:51;;;;;;;0.60;0.35;;;;;;;17.57;100.00;99058.16;5092732;28;20111;-76
2023/08/07 06:56:17;;;;;;;0.40;0.30;;;;;;;17.46;100.00;99039.53;5092026;28;20501;-76
2023/08/07 06:58:43;;;;;;;0.40;0.20;;;;;;;17.60;100.00;99043.19;5092438;28;20570;-76
2023/08/07 07:01:08;;;;;;;0.95;0.30;;;;;;;17.64;100.00;99038.78;5111955;28;20021;-75
2023/08/07 07:03:33;;;;;;;0.20;0.20;;;;;;;17.67;100.00;99021.88;5094857;28;20032;-75
2023/08/07 07:05:59;;;;;;;1.30;0.45;;;;;;;17.61;100.00;99017.59;5109354;28;20028;-76
2023/08/07 07:08:24;;;;;;;0.57;0.20;;;;;;;17.59;100.00;99017.09;5093741;28;20028;-76
2023/08/07 07:10:50;;;;;;;1.17;0.22;;;;;;;17.52;100.00;99005.75;5094596;28;20043;-75
2023/08/07 07:13:15;;;;;;;0.25;0.20;;;;;;;17.53;100.00;99010.88;5092675;28;20490;-76
2023/08/07 07:15:40;;;;;;;1.13;0.30;;;;;;;17.61;100.00;99001.28;5092010;28;20032;-76
2023/08/07 07:18:06;;;;;;;1.48;0.40;;;;;;;17.50;100.00;99002.50;5108836;28;20459;-76
2023/08/07 07:20:31;;;;;;;0.30;0.30;;;;;;;17.66;100.00;98998.50;5093142;28;20051;-76
2023/08/07 07:22:57;;;;;;;0.68;0.17;;;;;;;17.31;100.00;98984.19;5091206;28;20191;-76
2023/08/07 07:25:22;;;;;;;0.50;0.20;;;;;;;17.57;100.00;99002.97;5091362;28;20027;-76
2023/08/07 07:27:47;;;;;;;0.82;0.40;;;;;;;17.62;100.00;98986.59;5108255;28;20039;-76
2023/08/07 07:30:13;;;;;;;0.40;0.20;;;;;;;17.56;100.00;98977.69;5108403;28;20499;-77
2023/08/07 07:32:38;;;;;;;0.77;0.20;;;;;;;17.78;100.00;98990.78;5107976;28;20036;-76
2023/08/07 07:35:04;;;;;;;1.30;0.30;;;;;;;17.73;100.00;98976.41;5091107;28;20032;-76
2023/08/07 07:37:31;;;;;;;0.20;0.20;;;;;;;17.70;100.00;98985.94;5091199;28;20495;-76
2023/08/07 07:39:56;;;;;;;1.92;0.40;;;;;;;17.79;100.00;98981.50;5091624;28;20152;-76
2023/08/07 07:42:21;;;;;;;1.42;0.70;;;;;;;17.88;100.00;98978.13;5093256;28;20092;-76
2023/08/07 07:44:47;;;;;;;0.30;0.20;;;;;;;17.78;100.00;98954.59;5109596;28;20482;-76
2023/08/07 07:47:13;;;;;;;0.32;0.20;;;;;;;17.90;100.00;98957.69;5113583;28;20028;-76
2023/08/07 07:49:38;;;;;;;0.35;0.20;;;;;;;17.99;100.00;98976.91;5095184;28;20035;-76
2023/08/07 07:52:05;;;;;;;0.82;0.20;;;;;;;17.94;100.00;98953.28;5109703;28;20048;-76
2023/08/07 07:54:30;;;;;;;1.20;0.30;;;;;;;17.86;100.00;98966.75;5092619;28;20472;-76
2023/08/07 07:56:56;;;;;;;1.77;0.30;;;;;;;18.02;100.00;98977.13;5092079;28;20036;-76
2023/08/07 07:59:21;;;;;;;1.27;0.30;;;;;;;17.94;100.00;98974.25;5092173;28;20487;-76
2023/08/07 08:01:46;;;;;;;1.38;0.30;;;;;;;17.97;100.00;98976.38;5091908;28;20020;-76
2023/08/07 08:04:12;;;;;;;2.65;0.30;;;;;;;17.81;100.00;98954.00;5092392;28;20086;-76
2023/08/07 08:06:37;;;;;;;1.65;0.30;;;;;;;17.90;100.00;98956.91;5074275;28;20338;-76
2023/08/07 08:09:04;;;;;;;1.27;0.28;;;;;;;18.00;100.00;98956.75;5094101;28;20407;-76
2023/08/07 08:11:30;;;;;;;1.25;0.32;;;;;;;18.05;100.00;98956.69;5108936;28;20032;-76
2023/08/07 08:13:56;;;;;;;1.98;0.43;;;;;;;18.09;100.00;98965.88;5092670;28;20020;-76
2023/08/07 08:16:21;;;;;;;0.82;0.32;;;;;;;17.82;100.00;98951.00;5092744;28;20051;-76
2023/08/07 08:18:47;;;;;;;1.63;0.30;;;;;;;18.21;100.00;98969.00;5091953;28;20115;-75
2023/08/07 08:21:12;;;;;;;0.90;0.30;;;;;;;18.22;100.00;98967.88;5093281;28;20491;-76
2023/08/07 08:23:38;;;;;;;1.10;0.30;;;;;;;18.10;100.00;98966.69;5091464;28;20491;-75
2023/08/07 08:26:03;;;;;;;1.40;0.40;;;;;;;18.10;100.00;98977.59;5092497;28;20039;-76
2023/08/07 08:28:29;;;;;;;0.88;0.40;;;;;;;17.90;100.00;98990.34;5091873;28;20043;-76
2023/08/07 08:30:54;;;;;;;0.50;0.30;;;;;;;18.02;100.00;98982.59;5094695;28;20487;-76
2023/08/07 08:33:20;;;;;;;1.10;0.40;;;;;;;17.86;100.00;98967.56;5091471;28;20039;-76
2023/08/07 08:35:45;;;;;;;1.63;0.40;;;;;;;17.97;100.00;98951.91;5090915;28;20036;-76
2023/08/07 08:38:11;;;;;;;2.00;0.30;;;;;;;18.11;100.00;98951.97;5092166;28;20506;-76
2023/08/07 08:40:39;;;;;;;1.95;0.30;;;;;;;18.31;100.00;98957.94;5090876;28;20049;-76
2023/08/07 08:43:05;;;;;;;0.57;0.35;;;;;;;18.33;100.00;98965.00;5091639;28;20062;-76
2023/08/07 08:45:32;;;;;;;0.90;0.50;;;;;;;18.29;100.00;98970.22;5095977;28;20028;-76
2023/08/07 08:48:03;;;;;;;0.40;0.30;;;;;;;18.37;100.00;98966.81;5077586;28;20062;-76
2023/08/07 08:50:29;;;;;;;1.35;0.47;;;;;;;18.40;100.00;98966.25;5073674;28;20052;-76
2023/08/07 08:52:56;;;;;;;1.15;0.40;;;;;;;18.44;100.00;98963.72;5089728;28;20028;-76
2023/08/07 08:55:21;;;;;;;2.92;0.40;;;;;;;18.43;100.00;98959.41;5089651;28;20028;-77
2023/08/07 08:57:47;;;;;;;0.75;0.30;;;;;;;18.47;100.00;98974.84;5090005;28;20035;-77
2023/08/07 09:00:25;;;;;;;0.50;0.32;;;;;;;18.38;100.00;98973.09;5090067;28;20025;-76
2023/08/07 09:02:51;;;;;;;0.70;0.30;;;;;;;18.42;100.00;98961.31;5093797;28;20416;-76
2023/08/07 09:05:19;;;;;;;0.57;0.30;;;;;;;18.45;100.00;98959.94;5093943;28;20028;-76
2023/08/07 09:07:46;;;;;;;2.25;0.40;;;;;;;18.42;100.00;98964.03;5094165;28;20028;-76
2023/08/07 09:10:13;;;;;;;1.15;0.40;;;;;;;18.49;100.00;98959.03;5095701;28;20089;-77
2023/08/07 09:12:50;;;;;;;1.45;0.40;;;;;;;18.47;100.00;98944.06;5095256;28;20024;-76
2023/08/07 09:15:16;;;;;;;1.33;0.50;;;;;;;18.39;100.00;98934.69;5096853;28;20032;-76
2023/08/07 09:17:43;;;;;;;2.20;0.50;;;;;;;18.25;100.00;98937.34;5095405;28;20042;-76
2023/08/07 09:20:13;;;;;;;2.65;0.50;;;;;;;18.29;100.00;98927.47;5094039;28;20184;-77
2023/08/07 09:22:40;;;;;;;3.40;0.50;;;;;;;18.38;100.00;98935.78;5109832;28;20118;-77
2023/08/07 09:25:06;;;;;;;2.33;0.40;;;;;;;18.52;100.00;98919.50;5093209;28;20127;-76
2023/08/07 09:27:33;;;;;;;1.40;0.43;;;;;;;18.63;100.00;98926.38;5110417;28;20042;-77
2023/08/07 09:29:59;;;;;;;1.20;0.50;;;;;;;18.64;100.00;98906.22;5094527;28;20020;-76
2023/08/07 09:32:24;;;;;;;2.92;0.60;;;;;;;18.65;100.00;98917.94;5097254;28;20105;-76
2023/08/07 09:34:51;;;;;;;1.05;0.50;;;;;;;18.39;100.00;98901.19;5095736;28;20478;-77
2023/08/07 09:37:17;;;;;;;3.60;0.70;;;;;;;18.44;100.00;98909.25;5093095;28;20028;-77
2023/08/07 09:39:42;;;;;;;1.67;0.52;;;;;;;18.40;100.00;98894.63;5094464;28;20039;-76
2023/08/07 09:42:15;;;;;;;2.10;0.60;;;;;;;18.44;100.00;98888.31;5093276;28;20028;-77
2023/08/07 09:44:41;;;;;;;1.00;0.50;;;;;;;18.51;100.00;98896.09;5093118;28;20035;-77
2023/08/07 09:47:14;;;;;;;2.88;0.57;;;;;;;18.62;100.00;98908.44;5094720;28;20028;-77
2023/08/07 09:49:40;;;;;;;2.33;0.70;;;;;;;18.86;100.00;98918.41;5093216;28;20086;-77
2023/08/07 09:52:08;;;;;;;0.70;0.50;;;;;;;18.85;100.00;98916.78;5094336;28;20059;-77
2023/08/07 09:54:34;;;;;;;2.83;0.90;;;;;;;18.81;100.00;98913.88;5110088;28;20028;-77
2023/08/07 09:57:01;;;;;;;2.10;0.50;;;;;;;18.67;100.00;98902.88;5092974;28;20024;-77
2023/08/07 09:59:27;;;;;;;1.90;0.57;;;;;;;18.69;100.00;98895.22;5093170;28;20393;-76
2023/08/07 10:01:54;;;;;;;1.90;0.50;;;;;;;18.80;100.00;98898.59;5109890;28;20103;-77
2023/08/07 10:04:21;;;;;;;1.50;0.65;;;;;;;18.93;100.00;98905.19;5092535;28;20035;-77
2023/08/07 10:06:46;;;;;;;0.95;0.57;;;;;;;18.90;100.00;98900.34;5094231;28;20020;-77
2023/08/07 10:09:12;;;;;;;1.83;0.65;;;;;;;18.89;100.00;98898.72;5109978;28;20035;-76
2023/08/07 10:11:41;;;;;;;1.58;0.70;;;;;;;18.74;100.00;98894.34;5093013;28;20125;-76
2023/08/07 10:14:11;;;;;;;3.10;0.93;;;;;;;18.75;100.00;98880.44;5093100;28;20336;-76
2023/08/07 10:16:40;;;;;;;1.08;0.68;;;;;;;18.81;100.00;98861.25;5097424;28;20442;-75
2023/08/07 10:19:09;;;;;;;1.08;0.60;;;;;;;18.70;100.00;98879.69;5093612;28;20020;-76
2023/08/07 10:21:42;;;;;;;1.75;0.70;;;;;;;18.80;100.00;98876.00;5096244;28;20032;-77
2023/08/07 10:24:09;;;;;;;1.90;0.80;;;;;;;18.72;100.00;98870.13;5093279;28;20464;-77
2023/08/07 10:26:41;;;;;;;3.20;0.90;;;;;;;18.68;100.00;98866.38;5077029;28;20038;-76
2023/08/07 10:29:10;;;;;;;2.40;0.80;;;;;;;18.70;100.00;98874.22;5096822;28;20079;-77
2023/08/07 10:31:36;;;;;;;1.70;0.60;;;;;;;18.72;100.00;98863.88;5092647;28;20041;-77
2023/08/07 10:34:02;;;;;;;2.55;0.80;;;;;;;18.69;100.00;98851.63;5109641;28;20111;-77
2023/08/07 10:36:34;;;;;;;2.97;0.80;;;;;;;18.80;100.00;98862.38;5092255;28;20451;-77
2023/08/07 10:39:11;;;;;;;1.80;0.80;;;;;;;18.81;100.00;98867.53;5092502;28;20028;-77
2023/08/07 10:41:44;;;;;;;1.40;0.80;;;;;;;18.84;100.00;98860.66;5092324;28;20026;-77
2023/08/07 10:44:21;;;;;;;1.00;0.80;;;;;;;18.97;100.00;98865.31;5093186;28;20173;-77
2023/08/07 10:46:53;;;;;;;3.22;0.90;;;;;;;18.79;100.00;98845.22;5108969;28;20032;-77
2023/08/07 10:49:39;;;;;;;1.48;0.98;;;;;;;18.83;100.00;98845.44;5091763;28;20019;-77
2023/08/07 10:52:12;;;;;;;4.53;1.10;;;;;;;18.92;100.00;98865.44;5093164;28;20475;-77
2023/08/07 10:54:49;;;;;;;2.67;1.25;;;;;;;19.08;100.00;98861.28;5091816;28;20032;-77
2023/08/07 10:57:19;;;;;;;3.08;1.20;;;;;;;18.98;100.00;98850.59;5093024;28;20114;-77
2023/08/07 11:00:05;;;;;;;4.65;1.13;;;;;;;19.00;100.00;98853.81;5091848;28;20031;-77
2023/08/07 11:02:33;;;;;;;2.33;1.10;;;;;;;18.99;100.00;98863.09;5093028;28;20532;-77
2023/08/07 11:04:59;;;;;;;2.00;1.20;;;;;;;19.01;100.00;98861.69;5091768;28;20016;-76
2023/08/07 11:07:29;;;;;;;3.60;1.00;;;;;;;19.02;100.00;98862.50;5108918;28;20097;-77
2023/08/07 11:09:56;;;;;;;4.05;1.20;;;;;;;19.00;100.00;98867.44;5094981;28;20039;-77
2023/08/07 11:12:25;;;;;;;6.82;1.45;;;;;;;19.05;100.00;98875.53;5093236;28;20032;-76
2023/08/07 11:14:52;;;;;;;5.28;1.45;;;;;;;19.02;100.00;98873.41;5094984;28;20051;-76
2023/08/07 11:17:18;;;;;;;3.53;1.40;;;;;;;19.02;100.00;98860.59;5094651;28;20039;-76
2023/08/07 11:19:47;;;;;;;2.80;1.38;;;;;;;19.10;100.00;98864.50;5091358;28;20032;-76
2023/08/07 11:22:12;;;;;;;4.15;1.50;;;;;;;19.18;100.00;98872.00;5093418;28;20428;-76